CRW Airport (Yeager) Information

FAA: CRW - ICAO: KCRW

CRW Airport Location

State West Virginia
County Kanawha
City Charleston
CRW Airport is 3 miles east of Charleston, WV.
Latitude 38-22-33.6455N
Longitude 081-35-34.4144W
Elevation 947ft

KCRW Airport METARs

METAR KCRW 182154Z VRB04KT 10SM CLR 19/05 A3012 RMK AO2 SLP199 T01890050
Altimeter 30.12"
Temperature 18.9°C (66.0°F)
Wind 0° at 4KT
Clouds Skies are clear.
Visibility 10.0mi
Time observed: 2021-10-18T21:54:00Z

CRW Airport Details

Status Operational
Activation August 1947
Ownership Public
Usage Public
Chart CINCINNATI
ATC on-site Yes
Beacon schedule sunset-sunrise
Beacon color clear green

CRW Airport Contacts

Owner CENTRAL WVA REG ARPT AUTH
Owner address 100 AIRPORT ROAD SUITE 175, CHARLESTON, WV 25311
Owner phone (304) 344-8033
Manager KENNETH GORDON
Manager address N/A, N/A
Manager phone 509-577-3719

CRW Airport (Yeager) Radio Frequencies

CRW (Airport) Radio Frequencies

UNICOM 122.95
Common traffic advisory frequency (CTAF) N/A